Merrickville, Canada
Current Conditions -  °F | °C
As of 9:00 AM on Thursday 27 Nov 2014 (Local Time) from CYOW Reporting Station
Broken Clouds Broken Clouds  
Wind Chill: 18°   Ceiling: 3200
Heat Index: 27°   Visibility: 15mi
Dew Point: 18°   Wind: 8mph
Humidity: 69%   Direction: 330°NNW
Pressure: 30.06"   Gusts: NA
Location:  44.92°N, 75.83°W
Report Text: CYOW 271400Z 33007KT 15SM BKN032 M03/M08 A3006 RMK SC7 SLP186
Loading
Personal Weather Stations






























Interactive Weather Map New forecast layout! Learn more

10-Day Weather Forecast

Advertisements
Track Severe Weather on mobile